Sunbury, Illinois
Current Conditions -  °F | °C
As of 8:55 PM on Tuesday 21 Oct 2014 (Local Time) from KPNT Reporting Station
Clear Clear  
Wind Chill: 36°   Ceiling: Unl
Heat Index: 41°   Visibility: 10mi
Dew Point: 38°   Wind: 7mph
Humidity: 88%   Direction: 60°ENE
Pressure: 30.25"   Gusts: NA
Location:  41.0632°N, 88.6426°W
Report Text: KPNT 220155Z AUTO 06006KT 10SM CLR 05/03 A3025 RMK AO2 T00500031
Loading
Personal Weather Stations






























Interactive Weather Map
Tropical Storm Tracking
New forecast layout! Learn more

10-Day Weather Forecast

Advertisements
Track Severe Weather on mobile